Time;durP1;ratioP1;P1;durP2;ratioP2;P2;SDS_P1;SDS_P2;PMS_P1;PMS_P2;Temp;Humidity;BMP_temperature;BMP_pressure;BME280_temperature;BME280_humidity;BME280_pressure;Samples;Min_cycle;Max_cycle;Signal;HPM_P1;HPM_P2
2021/08/05 00:00:39;;;;;;;3.83;3.53;;;15.20;99.90;;;;;;5058818;28;20882;-42
2021/08/05 00:03:06;;;;;;;6.87;3.70;;;15.30;99.90;;;;;;5064890;28;20721;-44
2021/08/05 00:05:33;;;;;;;6.40;3.97;;;15.20;99.90;;;;;;5034248;28;20232;-40
2021/08/05 00:07:59;;;;;;;4.93;3.67;;;15.20;99.90;;;;;;5039209;28;20226;-40
2021/08/05 00:10:26;;;;;;;3.70;3.40;;;15.20;99.90;;;;;;5040942;28;20191;-43
2021/08/05 00:12:53;;;;;;;4.97;3.73;;;15.20;99.90;;;;;;5041141;28;20506;-45
2021/08/05 00:15:20;;;;;;;3.90;3.60;;;15.20;99.90;;;;;;5045009;28;20641;-44
2021/08/05 00:17:48;;;;;;;3.93;3.17;;;15.20;99.90;;;;;;5043702;28;20952;-42
2021/08/05 00:20:14;;;;;;;5.07;3.43;;;15.20;99.90;;;;;;5030915;28;20215;-43
2021/08/05 00:22:41;;;;;;;4.30;3.60;;;15.20;99.90;;;;;;5038114;28;20222;-45
2021/08/05 00:25:09;;;;;;;6.30;3.97;;;15.20;99.90;;;;;;5046798;28;20215;-43
2021/08/05 00:27:35;;;;;;;6.70;3.67;;;15.20;99.90;;;;;;5042475;28;20219;-47
2021/08/05 00:30:03;;;;;;;3.37;3.07;;;15.20;99.90;;;;;;5046509;28;20188;-41
2021/08/05 00:32:30;;;;;;;3.63;3.33;;;15.20;99.90;;;;;;5044108;28;20282;-42
2021/08/05 00:34:58;;;;;;;4.30;3.17;;;15.20;99.90;;;;;;5029059;28;20200;-44
2021/08/05 00:37:24;;;;;;;5.90;3.43;;;15.10;99.90;;;;;;5044775;28;20269;-42
2021/08/05 00:39:51;;;;;;;5.67;3.40;;;15.20;99.90;;;;;;5038789;28;20214;-42
2021/08/05 00:42:18;;;;;;;7.37;3.60;;;15.10;99.90;;;;;;5045684;28;20208;-40
2021/08/05 00:44:44;;;;;;;3.60;3.30;;;15.10;99.90;;;;;;5044564;28;20218;-43
2021/08/05 00:47:11;;;;;;;7.07;3.67;;;15.10;99.90;;;;;;5046563;28;20310;-45
2021/08/05 00:49:38;;;;;;;7.83;3.40;;;15.20;99.90;;;;;;5041761;28;20862;-44
2021/08/05 00:52:08;;;;;;;3.30;3.00;;;15.20;99.90;;;;;;5031668;28;20207;-42
2021/08/05 00:54:35;;;;;;;6.87;3.20;;;15.10;99.90;;;;;;5037910;28;20687;-46
2021/08/05 00:57:02;;;;;;;3.67;3.03;;;15.10;99.90;;;;;;5046120;28;20207;-42
2021/08/05 00:59:28;;;;;;;4.17;3.23;;;15.10;99.90;;;;;;5044697;28;20571;-42
2021/08/05 01:02:02;;;;;;;7.60;3.13;;;15.10;99.90;;;;;;5045012;28;20233;-41
2021/08/05 01:04:32;;;;;;;3.47;3.20;;;15.10;99.90;;;;;;5045270;28;20214;-41
2021/08/05 01:07:04;;;;;;;3.97;3.33;;;15.10;99.90;;;;;;5027841;28;20582;-43
2021/08/05 01:09:39;;;;;;;6.63;3.10;;;15.10;99.90;;;;;;5040794;28;20204;-40
2021/08/05 01:12:10;;;;;;;3.97;2.97;;;15.10;99.90;;;;;;5047376;28;20791;-45
2021/08/05 01:14:40;;;;;;;9.57;3.47;;;15.10;99.90;;;;;;5042121;28;20895;-41
2021/08/05 01:17:09;;;;;;;2.90;2.70;;;15.10;99.90;;;;;;5047659;28;20296;-42
2021/08/05 01:19:42;;;;;;;7.70;3.60;;;15.10;99.90;;;;;;5043826;28;20202;-42
2021/08/05 01:22:15;;;;;;;6.13;2.93;;;15.10;99.90;;;;;;5018872;28;20588;-41
2021/08/05 01:24:53;;;;;;;3.47;3.17;;;15.10;99.90;;;;;;5034633;28;20285;-42
2021/08/05 01:27:24;;;;;;;4.03;3.10;;;15.10;99.90;;;;;;5043764;28;20227;-46
2021/08/05 01:29:52;;;;;;;5.47;3.50;;;15.00;99.90;;;;;;5042122;28;20183;-44
2021/08/05 01:32:20;;;;;;;3.30;3.10;;;15.00;99.90;;;;;;5043726;28;20695;-49
2021/08/05 01:34:47;;;;;;;3.97;3.10;;;14.90;99.90;;;;;;5042720;28;20183;-41
2021/08/05 01:37:16;;;;;;;5.20;3.07;;;14.90;99.90;;;;;;5045454;28;20207;-42
2021/08/05 01:39:45;;;;;;;3.67;2.87;;;14.90;99.90;;;;;;5027220;28;20203;-44
2021/08/05 01:42:18;;;;;;;2.90;2.43;;;14.90;99.90;;;;;;5039765;28;20491;-43
2021/08/05 01:44:49;;;;;;;2.87;2.60;;;14.90;99.90;;;;;;5041802;28;20614;-44
2021/08/05 01:47:16;;;;;;;3.20;2.90;;;14.90;99.90;;;;;;5041280;28;20211;-44
2021/08/05 01:49:44;;;;;;;2.80;2.60;;;14.90;99.90;;;;;;5045936;28;20661;-47
2021/08/05 01:52:12;;;;;;;3.33;2.93;;;14.90;99.90;;;;;;5041437;28;20760;-44
2021/08/05 01:54:39;;;;;;;5.00;2.77;;;14.90;99.90;;;;;;5028073;28;20206;-43
2021/08/05 01:57:08;;;;;;;3.90;2.20;;;14.90;99.90;;;;;;5036715;28;20720;-42
2021/08/05 01:59:35;;;;;;;3.90;2.33;;;14.80;99.90;;;;;;5046223;28;20215;-48
2021/08/05 02:02:03;;;;;;;2.50;2.30;;;14.80;99.90;;;;;;5046394;28;20245;-40
2021/08/05 02:04:45;;;;;;;3.90;2.10;;;14.80;99.90;;;;;;5045539;28;20191;-44
2021/08/05 02:07:16;;;;;;;3.63;2.60;;;14.80;99.90;;;;;;5042566;28;20306;-40
2021/08/05 02:09:49;;;;;;;3.73;2.20;;;14.80;99.90;;;;;;5027089;28;20230;-44
2021/08/05 02:12:17;;;;;;;2.80;2.27;;;14.80;99.90;;;;;;5036465;28;20196;-42
2021/08/05 02:14:45;;;;;;;3.70;2.20;;;14.80;99.90;;;;;;5044989;28;20219;-43
2021/08/05 02:17:13;;;;;;;2.20;2.00;;;14.80;99.90;;;;;;5039908;28;20222;-43
2021/08/05 02:19:40;;;;;;;3.00;2.23;;;14.80;99.90;;;;;;5044364;28;20191;-43
2021/08/05 02:22:08;;;;;;;3.90;2.00;;;14.80;99.90;;;;;;5041806;28;20214;-48
2021/08/05 02:24:37;;;;;;;2.77;1.97;;;14.80;99.90;;;;;;5027961;28;20227;-43
2021/08/05 02:27:04;;;;;;;2.10;1.90;;;14.80;99.90;;;;;;5042286;28;20533;-41
2021/08/05 02:29:32;;;;;;;4.30;2.07;;;14.70;99.90;;;;;;5040595;28;20202;-41
2021/08/05 02:31:59;;;;;;;4.33;2.10;;;14.80;99.90;;;;;;5044676;28;20252;-46
2021/08/05 02:34:29;;;;;;;2.00;1.80;;;14.80;99.90;;;;;;5042008;28;20198;-40
2021/08/05 02:36:55;;;;;;;2.20;1.93;;;14.80;99.90;;;;;;5046374;28;20211;-41
2021/08/05 02:39:26;;;;;;;2.87;2.00;;;14.80;99.90;;;;;;5025060;28;20242;-41
2021/08/05 02:41:53;;;;;;;2.10;1.87;;;14.80;99.90;;;;;;5042745;28;20213;-43
2021/08/05 02:44:21;;;;;;;5.00;2.30;;;14.70;99.90;;;;;;5035881;28;20274;-45
2021/08/05 02:46:49;;;;;;;2.27;2.10;;;14.70;99.90;;;;;;5044135;28;20221;-40
2021/08/05 02:49:17;;;;;;;4.43;2.27;;;14.70;99.90;;;;;;5039457;28;20502;-44
2021/08/05 02:51:46;;;;;;;4.87;2.10;;;14.70;99.90;;;;;;5044914;28;20779;-42
2021/08/05 02:54:13;;;;;;;4.57;1.93;;;14.70;99.90;;;;;;5041981;28;20242;-40
2021/08/05 02:56:40;;;;;;;1.97;1.87;;;14.70;99.90;;;;;;5030416;28;20731;-44
2021/08/05 02:59:07;;;;;;;1.80;1.70;;;14.70;99.90;;;;;;5039878;28;20230;-46
2021/08/05 03:01:35;;;;;;;2.07;1.90;;;14.70;99.90;;;;;;5040669;28;20204;-43
2021/08/05 03:04:01;;;;;;;3.83;1.90;;;14.70;99.90;;;;;;5044170;28;20196;-40
2021/08/05 03:06:28;;;;;;;2.13;1.73;;;14.70;99.90;;;;;;5043274;28;20211;-47
2021/08/05 03:08:56;;;;;;;2.80;1.90;;;14.70;99.90;;;;;;5043456;28;20657;-43
2021/08/05 03:11:23;;;;;;;4.57;2.00;;;14.70;99.90;;;;;;5024526;28;20203;-44
2021/08/05 03:13:50;;;;;;;4.97;2.60;;;14.70;99.90;;;;;;5048016;28;20255;-46
2021/08/05 03:16:17;;;;;;;3.00;2.10;;;14.70;99.90;;;;;;5037591;28;20905;-43
2021/08/05 03:18:43;;;;;;;2.60;2.07;;;14.70;99.90;;;;;;5043611;28;20688;-43
2021/08/05 03:21:11;;;;;;;3.60;1.87;;;14.70;99.90;;;;;;5040028;28;20586;-44
2021/08/05 03:23:38;;;;;;;2.63;1.70;;;14.70;99.90;;;;;;5043122;28;20198;-47
2021/08/05 03:26:06;;;;;;;2.40;2.20;;;14.60;99.90;;;;;;5033272;28;20582;-43
2021/08/05 03:28:33;;;;;;;3.60;1.80;;;14.70;99.90;;;;;;5037759;28;20211;-43
2021/08/05 03:30:59;;;;;;;4.07;2.30;;;14.60;99.90;;;;;;5039368;28;20222;-44
2021/08/05 03:33:26;;;;;;;3.27;1.83;;;14.60;99.90;;;;;;5041208;28;20194;-41
2021/08/05 03:35:53;;;;;;;4.70;1.80;;;14.60;99.90;;;;;;5043189;28;20191;-43
2021/08/05 03:38:19;;;;;;;2.80;2.17;;;14.60;99.90;;;;;;5039449;28;20964;-46
2021/08/05 03:40:46;;;;;;;2.93;2.60;;;14.60;99.90;;;;;;5045425;28;20195;-45
2021/08/05 03:43:14;;;;;;;3.40;1.90;;;14.60;99.90;;;;;;5023394;28;20215;-47
2021/08/05 03:45:40;;;;;;;3.27;1.80;;;14.60;99.90;;;;;;5038631;28;20219;-40
2021/08/05 03:48:07;;;;;;;2.87;1.63;;;14.60;99.90;;;;;;5040474;28;20211;-43
2021/08/05 03:50:33;;;;;;;2.37;1.87;;;14.60;99.90;;;;;;5041125;28;20192;-48
2021/08/05 03:53:01;;;;;;;2.13;1.83;;;14.50;99.90;;;;;;5041442;28;20187;-42
2021/08/05 03:55:28;;;;;;;2.03;1.90;;;14.50;99.90;;;;;;5040957;28;20175;-41
2021/08/05 03:57:54;;;;;;;3.53;2.10;;;14.50;99.90;;;;;;5024388;28;20251;-46
2021/08/05 04:00:22;;;;;;;2.17;1.87;;;14.50;99.90;;;;;;5038002;28;20204;-45
2021/08/05 04:02:49;;;;;;;2.50;2.00;;;14.50;99.90;;;;;;5044246;28;20191;-45
2021/08/05 04:05:16;;;;;;;2.70;2.20;;;14.50;99.90;;;;;;5042719;28;20919;-46
2021/08/05 04:07:42;;;;;;;2.57;2.37;;;14.50;99.90;;;;;;5046229;28;20265;-47
2021/08/05 04:10:10;;;;;;;2.57;2.30;;;14.50;99.90;;;;;;5041365;28;20195;-47
2021/08/05 04:12:37;;;;;;;2.47;1.97;;;14.50;99.90;;;;;;5042365;28;20203;-41
2021/08/05 04:15:04;;;;;;;2.50;2.30;;;14.50;99.90;;;;;;5022413;28;20215;-46
2021/08/05 04:17:32;;;;;;;3.80;2.37;;;14.50;99.90;;;;;;5038130;28;20878;-48
2021/08/05 04:19:59;;;;;;;2.17;2.07;;;14.50;99.90;;;;;;5045007;28;20428;-42
2021/08/05 04:22:25;;;;;;;3.17;1.83;;;14.50;99.90;;;;;;5043725;28;20192;-47
2021/08/05 04:24:52;;;;;;;1.93;1.73;;;14.50;99.90;;;;;;5045209;28;20667;-44
2021/08/05 04:27:19;;;;;;;4.33;2.23;;;14.50;99.90;;;;;;5041662;28;20219;-43
2021/08/05 04:29:45;;;;;;;2.23;1.70;;;14.60;99.90;;;;;;5030255;28;20578;-47
2021/08/05 04:32:12;;;;;;;5.00;2.40;;;14.60;99.90;;;;;;5036587;28;20222;-43
2021/08/05 04:34:40;;;;;;;2.87;2.43;;;14.60;99.90;;;;;;5042296;28;20207;-42
2021/08/05 04:37:07;;;;;;;3.17;2.20;;;14.60;99.90;;;;;;5040063;28;20215;-44
2021/08/05 04:39:33;;;;;;;2.40;1.80;;;14.60;99.90;;;;;;5041213;28;20184;-42
2021/08/05 04:42:00;;;;;;;9.57;1.87;;;14.60;99.90;;;;;;5041452;28;20195;-43
2021/08/05 04:44:27;;;;;;;2.70;2.27;;;14.70;99.90;;;;;;5040234;28;20183;-44
2021/08/05 04:46:54;;;;;;;2.30;2.10;;;14.70;99.90;;;;;;5023711;28;20227;-44
2021/08/05 04:49:21;;;;;;;4.40;1.93;;;14.70;99.90;;;;;;5034082;28;20195;-42
2021/08/05 04:51:49;;;;;;;3.90;1.90;;;14.70;99.90;;;;;;5042317;28;20204;-44
2021/08/05 04:54:15;;;;;;;3.23;2.17;;;14.70;99.90;;;;;;5038105;28;20262;-42
2021/08/05 04:56:42;;;;;;;2.47;1.97;;;14.70;99.90;;;;;;5042638;28;20215;-46
2021/08/05 04:59:09;;;;;;;2.33;2.10;;;14.70;99.90;;;;;;5041527;28;20191;-41
2021/08/05 05:01:35;;;;;;;4.47;2.20;;;14.70;99.90;;;;;;5029955;28;20705;-47
2021/08/05 05:04:02;;;;;;;4.83;2.27;;;14.80;99.90;;;;;;5043810;28;20207;-41
2021/08/05 05:06:29;;;;;;;2.97;2.20;;;14.70;99.90;;;;;;5047016;28;20211;-47
2021/08/05 05:08:57;;;;;;;2.50;2.30;;;14.70;99.90;;;;;;5050566;28;20269;-41
2021/08/05 05:11:24;;;;;;;5.33;2.30;;;14.80;99.90;;;;;;5044955;28;20188;-45
2021/08/05 05:13:50;;;;;;;4.00;2.20;;;14.80;99.90;;;;;;5046147;28;20779;-45
2021/08/05 05:16:17;;;;;;;2.13;1.90;;;14.80;99.90;;;;;;5025419;28;20281;-46
2021/08/05 05:18:43;;;;;;;5.10;2.20;;;14.80;99.90;;;;;;5042638;28;20693;-43
2021/08/05 05:21:10;;;;;;;3.00;2.43;;;14.80;99.90;;;;;;5038346;28;20215;-41
2021/08/05 05:23:37;;;;;;;3.87;2.10;;;14.80;99.90;;;;;;5050497;28;20278;-48
2021/08/05 05:26:05;;;;;;;3.73;1.97;;;14.80;99.90;;;;;;5049148;28;20628;-41
2021/08/05 05:28:32;;;;;;;2.80;2.00;;;14.80;99.90;;;;;;5049158;28;20214;-42
2021/08/05 05:31:00;;;;;;;3.57;2.50;;;14.80;99.90;;;;;;5044233;28;20187;-44
2021/08/05 05:33:27;;;;;;;5.43;2.03;;;14.80;99.90;;;;;;5027342;28;20211;-41
2021/08/05 05:35:54;;;;;;;2.33;2.10;;;14.80;99.90;;;;;;5040569;28;20195;-43
2021/08/05 05:38:21;;;;;;;2.23;2.13;;;14.80;99.90;;;;;;5041920;28;20320;-41
2021/08/05 05:40:47;;;;;;;3.33;2.10;;;14.80;99.90;;;;;;5045018;28;20196;-42
2021/08/05 05:43:16;;;;;;;4.47;2.00;;;14.80;99.90;;;;;;5041245;28;20192;-45
2021/08/05 05:45:43;;;;;;;2.17;2.03;;;14.80;99.90;;;;;;5045259;28;20196;-42
2021/08/05 05:48:10;;;;;;;6.20;2.63;;;14.90;99.90;;;;;;5023737;28;20219;-47
2021/08/05 05:50:37;;;;;;;2.63;1.80;;;14.90;99.90;;;;;;5039764;28;20207;-41
2021/08/05 05:53:05;;;;;;;2.60;2.40;;;14.90;99.90;;;;;;5035147;28;20210;-47
2021/08/05 05:55:31;;;;;;;2.33;2.03;;;14.90;99.90;;;;;;5047404;28;20183;-44
2021/08/05 05:57:58;;;;;;;2.23;2.03;;;15.00;99.90;;;;;;5048382;28;20210;-46
2021/08/05 06:00:26;;;;;;;2.13;1.93;;;15.00;99.90;;;;;;5042046;28;20195;-46
2021/08/05 06:02:53;;;;;;;2.60;2.10;;;15.10;99.90;;;;;;5044955;28;20551;-42
2021/08/05 06:05:19;;;;;;;2.33;1.97;;;15.10;99.90;;;;;;5021946;28;20945;-40
2021/08/05 06:07:47;;;;;;;2.70;1.97;;;15.10;99.90;;;;;;5040471;28;20223;-43
2021/08/05 06:10:16;;;;;;;3.27;2.10;;;15.20;99.90;;;;;;5040501;28;20252;-49
2021/08/05 06:12:42;;;;;;;3.17;1.97;;;15.20;99.90;;;;;;5044551;28;20199;-47
2021/08/05 06:15:10;;;;;;;3.03;2.07;;;15.20;99.90;;;;;;5041682;28;20190;-43
2021/08/05 06:17:40;;;;;;;2.37;1.80;;;15.30;99.90;;;;;;5043981;28;20216;-46
2021/08/05 06:20:09;;;;;;;3.33;2.23;;;15.30;99.90;;;;;;5025899;28;20257;-46
2021/08/05 06:22:37;;;;;;;2.90;2.00;;;15.30;99.90;;;;;;5039219;28;20249;-40
2021/08/05 06:25:04;;;;;;;3.17;2.20;;;15.40;99.90;;;;;;5043429;28;20196;-42
2021/08/05 06:27:31;;;;;;;3.00;1.83;;;15.40;99.90;;;;;;5043074;28;20219;-44
2021/08/05 06:29:58;;;;;;;2.30;2.10;;;15.50;99.90;;;;;;5043366;28;20194;-44
2021/08/05 06:32:25;;;;;;;2.67;2.13;;;15.60;99.90;;;;;;5041501;28;20199;-43
2021/08/05 06:34:53;;;;;;;2.70;1.70;;;15.60;99.90;;;;;;5044364;28;20183;-47
2021/08/05 06:37:19;;;;;;;3.00;2.27;;;15.60;99.90;;;;;;5017629;28;20230;-45
2021/08/05 06:39:46;;;;;;;2.40;2.20;;;15.60;99.90;;;;;;5043947;28;20196;-42
2021/08/05 06:42:13;;;;;;;3.00;2.20;;;15.70;99.90;;;;;;5040755;28;20256;-45
2021/08/05 06:44:39;;;;;;;6.90;2.27;;;15.80;99.90;;;;;;5044092;28;20195;-41
2021/08/05 06:47:06;;;;;;;3.67;2.30;;;15.80;99.90;;;;;;5041698;28;20223;-45
2021/08/05 06:49:34;;;;;;;2.43;1.80;;;15.80;99.90;;;;;;5046116;28;20270;-44
2021/08/05 06:52:02;;;;;;;2.43;2.10;;;15.90;99.90;;;;;;5028725;28;20290;-45
2021/08/05 06:54:29;;;;;;;5.03;2.90;;;15.90;99.90;;;;;;5038470;28;20439;-44
2021/08/05 06:56:55;;;;;;;3.77;2.20;;;16.00;99.90;;;;;;5043750;28;20550;-43
2021/08/05 06:59:22;;;;;;;3.73;2.10;;;16.00;99.90;;;;;;5039865;28;20194;-44
2021/08/05 07:01:48;;;;;;;2.63;2.00;;;16.00;99.90;;;;;;5042726;28;20560;-46
2021/08/05 07:04:15;;;;;;;2.77;2.00;;;16.00;99.90;;;;;;5039733;28;20870;-41
2021/08/05 07:06:42;;;;;;;2.40;2.30;;;16.10;99.90;;;;;;5025194;28;20227;-44
2021/08/05 07:09:10;;;;;;;3.20;2.13;;;16.20;99.90;;;;;;5040455;28;20218;-49
2021/08/05 07:11:37;;;;;;;2.43;1.93;;;16.20;99.90;;;;;;5041906;28;20203;-43
2021/08/05 07:14:03;;;;;;;2.57;2.37;;;16.30;99.90;;;;;;5041958;28;20195;-43
2021/08/05 07:16:30;;;;;;;3.50;2.10;;;16.30;99.90;;;;;;5041624;28;20183;-43
2021/08/05 07:18:57;;;;;;;2.40;2.20;;;16.40;99.90;;;;;;5042905;28;20210;-45
2021/08/05 07:21:24;;;;;;;3.30;2.30;;;16.50;99.90;;;;;;5039965;28;20944;-44
2021/08/05 07:23:50;;;;;;;2.73;1.77;;;16.50;99.90;;;;;;5023916;28;20717;-42
2021/08/05 07:26:18;;;;;;;1.90;1.80;;;16.50;99.90;;;;;;5034665;28;20795;-45
2021/08/05 07:28:45;;;;;;;2.20;1.87;;;16.60;99.90;;;;;;5043282;28;20219;-44
2021/08/05 07:31:12;;;;;;;4.50;2.13;;;16.60;99.90;;;;;;5039742;28;20203;-45
2021/08/05 07:33:38;;;;;;;2.17;2.00;;;16.60;99.90;;;;;;5043339;28;20187;-45
2021/08/05 07:36:05;;;;;;;4.63;2.10;;;16.70;99.90;;;;;;5038384;28;20289;-45
2021/08/05 07:38:32;;;;;;;4.13;1.90;;;16.70;99.90;;;;;;5026539;28;20234;-43
2021/08/05 07:40:59;;;;;;;1.73;1.63;;;16.80;99.90;;;;;;5037128;28;20734;-42
2021/08/05 07:43:27;;;;;;;2.47;2.27;;;16.80;99.90;;;;;;5040609;28;20416;-44
2021/08/05 07:45:53;;;;;;;2.37;1.80;;;16.90;99.90;;;;;;5043348;28;20199;-44
2021/08/05 07:48:20;;;;;;;2.07;1.83;;;16.90;99.90;;;;;;5039111;28;20203;-43
2021/08/05 07:50:47;;;;;;;2.10;1.90;;;16.90;99.90;;;;;;5042887;28;20191;-43
2021/08/05 07:53:13;;;;;;;2.80;2.00;;;16.90;99.90;;;;;;5039164;28;20207;-40
2021/08/05 07:55:40;;;;;;;2.47;1.70;;;17.00;99.90;;;;;;5029957;28;20688;-48
2021/08/05 07:58:08;;;;;;;2.43;2.20;;;17.00;99.90;;;;;;5043496;28;20215;-45
2021/08/05 08:00:36;;;;;;;2.00;1.90;;;17.00;99.90;;;;;;5041943;28;20206;-42
2021/08/05 08:03:03;;;;;;;2.80;2.03;;;17.10;99.90;;;;;;5041359;28;20203;-45
2021/08/05 08:05:29;;;;;;;2.90;2.20;;;17.10;99.90;;;;;;5041229;28;20931;-41
2021/08/05 08:07:56;;;;;;;3.97;1.97;;;17.20;99.90;;;;;;5044750;28;20216;-43
2021/08/05 08:10:23;;;;;;;2.40;2.20;;;17.30;99.90;;;;;;5030152;28;20211;-47
2021/08/05 08:12:49;;;;;;;3.20;2.27;;;17.50;99.90;;;;;;5048635;28;20199;-49
2021/08/05 08:15:17;;;;;;;2.17;1.90;;;17.60;99.90;;;;;;5040174;28;20374;-43
2021/08/05 08:17:44;;;;;;;2.03;1.93;;;17.60;99.90;;;;;;5042979;28;20208;-46
2021/08/05 08:20:12;;;;;;;1.80;1.70;;;17.70;99.90;;;;;;5038911;28;20210;-46
2021/08/05 08:22:38;;;;;;;2.07;1.97;;;17.70;99.90;;;;;;5042333;28;20282;-46
2021/08/05 08:25:06;;;;;;;1.90;1.80;;;17.80;99.90;;;;;;5031881;28;20187;-48
2021/08/05 08:27:32;;;;;;;2.97;1.90;;;17.90;99.90;;;;;;5035810;28;20215;-46
2021/08/05 08:29:59;;;;;;;2.10;2.00;;;18.00;99.90;;;;;;5040258;28;20203;-50
2021/08/05 08:32:26;;;;;;;3.67;2.07;;;18.10;99.90;;;;;;5040051;28;20944;-43
2021/08/05 08:34:53;;;;;;;2.07;1.90;;;18.20;99.90;;;;;;5045881;28;20213;-51
2021/08/05 08:37:21;;;;;;;2.13;1.93;;;18.30;99.90;;;;;;5045794;28;21105;-48
2021/08/05 08:39:48;;;;;;;2.53;1.87;;;18.40;99.90;;;;;;5052302;28;20191;-50
2021/08/05 08:42:16;;;;;;;2.03;1.83;;;18.50;99.90;;;;;;5027748;28;20238;-47
2021/08/05 08:44:42;;;;;;;1.70;1.60;;;18.50;99.90;;;;;;5046339;28;20692;-42
2021/08/05 08:47:09;;;;;;;3.27;1.70;;;18.60;99.90;;;;;;5043139;28;20222;-45
2021/08/05 08:49:36;;;;;;;4.33;1.93;;;18.70;99.90;;;;;;5051142;28;20556;-51
2021/08/05 08:52:05;;;;;;;4.40;1.80;;;18.80;99.90;;;;;;5046333;28;20202;-45
2021/08/05 08:54:33;;;;;;;3.13;1.90;;;18.90;99.90;;;;;;5044964;28;20195;-43
2021/08/05 08:57:01;;;;;;;4.23;1.90;;;19.00;99.90;;;;;;5029035;28;20222;-50
2021/08/05 08:59:28;;;;;;;2.40;2.03;;;19.10;99.90;;;;;;5043363;28;20909;-42
2021/08/05 09:01:54;;;;;;;2.03;1.83;;;19.20;99.90;;;;;;5046100;28;20192;-49
2021/08/05 09:04:21;;;;;;;2.13;1.77;;;19.20;99.90;;;;;;5042378;28;20179;-46
2021/08/05 09:06:49;;;;;;;2.47;1.93;;;19.30;99.90;;;;;;5048800;28;20237;-43
2021/08/05 09:09:17;;;;;;;2.47;2.30;;;19.40;99.90;;;;;;5047215;28;20183;-46
2021/08/05 09:11:44;;;;;;;4.23;1.80;;;19.40;99.90;;;;;;5051446;28;20187;-46
2021/08/05 09:14:12;;;;;;;3.00;2.00;;;19.40;99.90;;;;;;5026960;28;20257;-45
2021/08/05 09:16:40;;;;;;;3.10;2.10;;;19.50;99.90;;;;;;5045425;28;20249;-46
2021/08/05 09:19:11;;;;;;;2.67;1.70;;;19.50;99.90;;;;;;5043301;28;20195;-43
2021/08/05 09:21:50;;;;;;;2.60;1.80;;;19.60;99.90;;;;;;5045202;28;20297;-45
2021/08/05 09:24:18;;;;;;;3.13;1.90;;;19.70;99.90;;;;;;5041754;28;20191;-42
2021/08/05 09:26:47;;;;;;;3.30;1.60;;;19.80;99.90;;;;;;5048799;28;20226;-46
2021/08/05 09:29:16;;;;;;;2.07;1.83;;;20.00;99.90;;;;;;5027727;28;20725;-41
2021/08/05 09:31:45;;;;;;;1.80;1.70;;;20.20;99.90;;;;;;5047198;28;20554;-44
2021/08/05 09:34:14;;;;;;;1.70;1.60;;;20.30;99.90;;;;;;5042167;28;20679;-44
2021/08/05 09:36:42;;;;;;;2.63;1.57;;;20.40;99.90;;;;;;5045638;28;20222;-46
2021/08/05 09:39:22;;;;;;;2.10;2.00;;;20.40;99.90;;;;;;5042645;28;20191;-43
2021/08/05 09:41:57;;;;;;;3.90;2.00;;;20.50;99.90;;;;;;5045474;28;20195;-49
2021/08/05 09:44:25;;;;;;;1.93;1.77;;;20.50;99.90;;;;;;5026549;28;20215;-42
2021/08/05 09:47:06;;;;;;;1.80;1.70;;;20.50;99.90;;;;;;5044150;28;20219;-46
2021/08/05 09:49:34;;;;;;;2.10;2.00;;;20.60;99.90;;;;;;5043643;28;20815;-44
2021/08/05 09:52:02;;;;;;;1.70;1.60;;;20.70;99.90;;;;;;5043735;28;20661;-43
2021/08/05 09:54:51;;;;;;;3.53;1.80;;;20.70;99.90;;;;;;5042890;28;20195;-47
2021/08/05 09:57:23;;;;;;;2.07;1.60;;;20.80;99.90;;;;;;5040807;28;20959;-49
2021/08/05 09:59:54;;;;;;;2.73;1.90;;;20.80;99.90;;;;;;5044983;28;20223;-44
2021/08/05 10:02:22;;;;;;;1.60;1.50;;;21.00;99.90;;;;;;5027419;28;20917;-45
2021/08/05 10:04:49;;;;;;;3.63;1.97;;;21.10;99.90;;;;;;5049157;28;20219;-49
2021/08/05 10:07:16;;;;;;;1.90;1.80;;;21.20;99.90;;;;;;5041677;28;20218;-44
2021/08/05 10:09:44;;;;;;;2.00;1.80;;;21.30;99.90;;;;;;5045131;28;20580;-43
2021/08/05 10:12:21;;;;;;;1.60;1.50;;;21.50;99.90;;;;;;5041713;28;20187;-44
2021/08/05 10:14:50;;;;;;;4.20;1.90;;;21.60;99.90;;;;;;5044889;28;20187;-44
2021/08/05 10:17:18;;;;;;;2.30;1.60;;;21.70;99.90;;;;;;5022217;28;21012;-42
2021/08/05 10:19:46;;;;;;;3.43;1.70;;;21.70;99.90;;;;;;5044449;28;20195;-46
2021/08/05 10:22:14;;;;;;;2.10;1.60;;;21.80;99.90;;;;;;5040803;28;20204;-47
2021/08/05 10:24:44;;;;;;;2.00;1.90;;;21.90;99.90;;;;;;5044769;28;20195;-48
2021/08/05 10:27:14;;;;;;;2.10;1.85;;;22.10;99.90;;;;;;5041256;28;20677;-48
2021/08/05 10:29:43;;;;;;;2.42;1.83;;;22.10;99.90;;;;;;5046624;28;20560;-51
2021/08/05 10:32:12;;;;;;;1.95;1.80;;;22.10;99.90;;;;;;5029539;28;20207;-43
2021/08/05 10:34:40;;;;;;;2.65;1.90;;;22.10;99.90;;;;;;5044367;28;20245;-44
2021/08/05 10:37:09;;;;;;;3.08;1.77;;;22.10;99.90;;;;;;5041977;28;20322;-44
2021/08/05 10:39:36;;;;;;;1.80;1.70;;;22.30;99.90;;;;;;5043498;28;20695;-46
2021/08/05 10:42:07;;;;;;;1.98;1.80;;;22.40;99.90;;;;;;5043929;28;20192;-42
2021/08/05 10:44:35;;;;;;;2.35;1.90;;;22.40;99.90;;;;;;5048137;28;20839;-48
2021/08/05 10:47:05;;;;;;;3.13;1.80;;;22.50;99.90;;;;;;5032191;28;20222;-41
2021/08/05 10:49:33;;;;;;;2.03;1.80;;;22.50;99.90;;;;;;5045745;28;20211;-46
2021/08/05 10:52:00;;;;;;;2.05;1.95;;;22.60;99.90;;;;;;5045970;28;20217;-41
2021/08/05 10:54:53;;;;;;;2.72;1.75;;;22.60;99.90;;;;;;5041761;28;20187;-47
2021/08/05 10:57:21;;;;;;;2.15;1.83;;;22.70;99.90;;;;;;5040733;28;20207;-47
2021/08/05 10:59:58;;;;;;;5.18;1.63;;;22.60;99.90;;;;;;5046142;28;20187;-50
2021/08/05 11:02:45;;;;;;;1.80;1.70;;;22.60;99.90;;;;;;5028299;28;20928;-45
2021/08/05 11:05:13;;;;;;;2.10;1.92;;;22.60;99.90;;;;;;5037008;28;20691;-41
2021/08/05 11:07:39;;;;;;;1.90;1.77;;;22.60;99.90;;;;;;5046745;28;20218;-47
2021/08/05 11:10:24;;;;;;;2.15;1.70;;;22.70;99.90;;;;;;5045222;28;20202;-41
2021/08/05 11:12:54;;;;;;;2.03;1.63;;;22.80;99.90;;;;;;5046966;28;20657;-45
2021/08/05 11:15:49;;;;;;;4.68;1.73;;;23.00;99.90;;;;;;5042292;28;20214;-42
2021/08/05 11:18:18;;;;;;;1.63;1.52;;;23.20;99.90;;;;;;5023707;28;20843;-44
2021/08/05 11:20:47;;;;;;;2.08;1.85;;;23.30;99.90;;;;;;5042985;28;20692;-44
2021/08/05 11:23:41;;;;;;;1.80;1.65;;;23.40;99.90;;;;;;5039548;28;20196;-45
2021/08/05 11:26:09;;;;;;;1.55;1.45;;;23.50;99.90;;;;;;5043675;28;20223;-41
2021/08/05 11:28:45;;;;;;;2.42;1.95;;;23.50;99.90;;;;;;5042960;28;20214;-44
2021/08/05 11:31:25;;;;;;;1.90;1.65;;;23.60;99.90;;;;;;5041965;28;20191;-41
2021/08/05 11:33:55;;;;;;;1.67;1.55;;;23.50;99.90;;;;;;5030695;28;20221;-45
2021/08/05 11:36:25;;;;;;;1.98;1.80;;;23.40;99.90;;;;;;5041868;28;20194;-44
2021/08/05 11:39:06;;;;;;;1.85;1.73;;;23.50;99.90;;;;;;5043475;28;20188;-42
2021/08/05 11:41:55;;;;;;;2.28;1.55;;;23.60;99.90;;;;;;5043389;28;20995;-43
2021/08/05 11:44:48;;;;;;;1.90;1.70;;;23.70;99.90;;;;;;5023050;28;20226;-46
2021/08/05 11:47:47;;;;;;;1.70;1.60;;;23.70;99.90;;;;;;5039119;28;20820;-46
2021/08/05 11:50:19;;;;;;;2.13;2.03;;;23.50;99.90;;;;;;5016569;28;20294;-43
2021/08/05 11:52:48;;;;;;;1.92;1.83;;;23.20;99.90;;;;;;5043230;28;20192;-44
2021/08/05 11:55:16;;;;;;;1.75;1.65;;;23.10;99.90;;;;;;5040949;28;20195;-44
2021/08/05 11:57:44;;;;;;;1.98;1.63;;;23.00;99.90;;;;;;5047256;28;20610;-46
2021/08/05 12:00:16;;;;;;;1.80;1.70;;;22.90;99.90;;;;;;5040621;28;20195;-43
2021/08/05 12:02:43;;;;;;;1.70;1.60;;;22.80;99.90;;;;;;5043574;28;20595;-47
2021/08/05 12:05:10;;;;;;;2.28;1.90;;;22.70;99.90;;;;;;5024460;28;20219;-47
2021/08/05 12:07:40;;;;;;;1.70;1.60;;;22.60;99.90;;;;;;5041888;28;20723;-42
2021/08/05 12:10:13;;;;;;;1.80;1.58;;;22.60;99.90;;;;;;5041917;28;20597;-47
2021/08/05 12:12:43;;;;;;;1.70;1.60;;;22.50;99.90;;;;;;5047160;28;20192;-43
2021/08/05 12:15:12;;;;;;;2.28;1.52;;;22.40;99.90;;;;;;5046625;28;20195;-42
2021/08/05 12:17:44;;;;;;;1.83;1.73;;;22.30;99.90;;;;;;5046837;28;20590;-42
2021/08/05 12:20:15;;;;;;;1.80;1.70;;;22.20;99.90;;;;;;5030643;28;20203;-43
2021/08/05 12:22:44;;;;;;;2.17;1.85;;;22.10;99.90;;;;;;5043972;28;20683;-45
2021/08/05 12:25:42;;;;;;;3.65;2.05;;;22.00;99.90;;;;;;5043385;28;20544;-44
2021/08/05 12:28:11;;;;;;;1.77;1.67;;;21.90;99.90;;;;;;5024598;28;20688;-43
2021/08/05 12:30:43;;;;;;;4.25;1.80;;;21.70;99.90;;;;;;5046943;28;20661;-46
2021/08/05 12:33:13;;;;;;;5.30;2.13;;;21.60;99.90;;;;;;5046258;28;20673;-41
2021/08/05 12:35:41;;;;;;;2.03;1.92;;;21.50;99.90;;;;;;5033012;28;20212;-42
2021/08/05 12:38:12;;;;;;;2.33;2.15;;;21.30;99.90;;;;;;5043534;28;20207;-44
2021/08/05 12:40:42;;;;;;;2.15;2.03;;;21.20;99.90;;;;;;5046353;28;20194;-47
2021/08/05 12:43:11;;;;;;;2.67;2.30;;;21.10;99.90;;;;;;5043492;28;20199;-45
2021/08/05 12:45:40;;;;;;;3.15;2.95;;;21.10;99.90;;;;;;5046204;28;20199;-44
2021/08/05 12:48:08;;;;;;;2.10;1.90;;;20.90;99.90;;;;;;5043726;28;20226;-46
2021/08/05 12:50:41;;;;;;;2.33;2.20;;;20.90;99.90;;;;;;5030367;28;24304;-46
2021/08/05 12:53:08;;;;;;;2.80;2.60;;;20.90;99.90;;;;;;5040517;28;20198;-41
2021/08/05 12:55:49;;;;;;;3.10;2.90;;;20.90;99.90;;;;;;5045727;28;20207;-46